Rice Lake, WI

7:22 AM CDT on July 28, 2014 (GMT -0500)
Shell Lake (KWISHELL2) Elev 1230 ft | 45.72 °N, 91.89 °W | Change Station

Current weather conditions updated 42 seconds ago

Overcast
Overcast
57.5 °F
Feels Like 57.5 °F
N
0.0
Wind Variable Wind from North
Gusts 0.0 mph

Today is forecast to be Much Warmer than yesterday.

Today
High -- | Low -- °F
--% Chance of Precip.
Yesterday
High -- | Low -- °F
Precip. -- in
5:46 AM 8:40 PM
New Moon, 2% visible
Pressure 30.18 in
Visibility 10.0 miles
Clouds Overcast 6000 ft
Dew Point 55 °F
Humidity 92%
Rainfall 0.00 in
Snow Depth Not available.
UV 0 out of 12
Pollen 6.80 out of 12
Air Quality Not available.
Flu Activity Not available.
METAR KUBE 281215Z AUTO 00000KT 10SM OVC060 14/13 A3018 RMK AO2

More Conditions Fewer Conditions

Pressure 30.18 in
Visibility 10.0 miles
Clouds Overcast 6000 ft
Dew Point 55 °F
Humidity 92%
Rainfall 0.00 in
Snow Depth Not available.
UV 0 out of 12
Pollen 6.80 out of 12
Air Quality Not available.
Flu Activity Not available.
METAR KUBE 281215Z AUTO 00000KT 10SM OVC060 14/13 A3018 RMK AO2

More Conditions Fewer Conditions

10-Day Weather Forecast

Almanac

Astronomy

Jul. 28, 2014 Rise Set
Actual Time 5:46 AM CDT 8:40 PM CDT
Civil Twilight 5:11 AM CDT 9:15 PM CDT
Nautical Twilight 4:26 AM CDT 9:59 PM CDT
Astronomical Twilight 3:34 AM CDT 10:51 PM CDT
Moon 7:36 AM CDT 9:12 PM CDT
Length of Visible Light 16h 03m
Length of Day
14h 54m
Tomorrow will be 2m 20s shorter.
New Moon, 2% of the Moon is Illuminated
Today
New Moon
Aug 3
First Quarter
Aug 10
Full
Aug 17
Last Quarter
Aug 25
New

Today's Extremes

State Highs State Lows

Community

WunderPhotos

Upload Photos

1,738,311 photos uploaded!

Nearby

Snow Depth

Station Depth Elevation
No new snow has been reported.

Earthquake Activity

City Distance Mag. Time & Date
No recent earthquake activity has been reported nearby.
Minimum magnitude displayed is 2.5.

Coastal Water Temperatures

Place Temperature
No Stations Reporting

Nearby Weather Stations

Station Location Temp. Dew Point Humidity Wind Precip. Elev Updated Type
Shell Lake, Shell Lake, WI 57.5 °F 55 °F 92% North  at  0.0 mph - / hr 1230 ft 7:22 AM CDT Normal
The Woods, Birchwood, WI 50.5 °F 50 °F 99% WSW  at  1.1 mph - / hr 1214 ft 7:13 AM CDT Normal
Shell Lake, WI 55.4 °F 55 °F 99% SSW  at  4.7 mph - / hr 1240 ft 6:40 AM CDT Normal
Chris and Kristin Olson, Barron, WI 58.7 °F 57 °F 95% North  at  0.6 mph 0.00 in / hr 1122 ft 7:22 AM CDT Rapid Fire

Show More Stations Show Fewer Stations